This is the latest recevied weather packets stored in our database for station/object KQ4HDO. If no packets are shown the sender has not sent any weather packets the latest 10 day(s).
| Time | Temp. | Humidity | Pressure | Rain* | Wind** | Luminosity | Snow |
|---|---|---|---|---|---|---|---|
| 1777219203 | 22.78° C | 54% | 1013.2 hPa | 0 mm | - | - | - |
| 1777218903 | 22.78° C | 55% | 1013.2 hPa | 0 mm | - | - | - |
| 1777217403 | 21.11° C | 60% | 1013.4 hPa | 0 mm | - | - | - |
| 1777217103 | 21.11° C | 60% | 1013.3 hPa | 0 mm | - | - | - |
| 1777215903 | 20° C | 63% | 1013.3 hPa | 0 mm | - | - | - |
| 1777213938 | 18.33° C | 66% | 1013.2 hPa | 0 mm | - | - | - |
| 1777213203 | 18.33° C | 67% | 1013.3 hPa | 0 mm | - | - | - |
| 1777211403 | 16.67° C | 72% | 1013.4 hPa | 0 mm | - | - | - |
| 1777211103 | 16.67° C | 72% | 1013.3 hPa | 0 mm | - | - | - |
| 1777207203 | 13.33° C | 80% | 1013.3 hPa | 0 mm | - | - | - |
| 1777206603 | 12.78° C | 81% | 1013.3 hPa | 0 mm | - | - | - |
| 1777204337 | 10° C | 89% | 1012.9 hPa | 0 mm | - | - | - |
| 1777201803 | 10° C | 88% | 1012.5 hPa | 0 mm | - | - | - |
| 1777199403 | 10.56° C | 87% | 1012.2 hPa | 0 mm | - | - | - |
| 1777198503 | 10.56° C | 87% | 1012.3 hPa | 0 mm | - | - | - |
| 1777193104 | 11.67° C | 82% | 1012.1 hPa | 0 mm | - | - | - |
| 1777192503 | 11.67° C | 80% | 1012.1 hPa | 0 mm | - | - | - |
| 1777190403 | 12.22° C | 78% | 1011.9 hPa | 0 mm | - | - | - |
| 1777185303 | 13.33° C | 74% | 1011.9 hPa | 0 mm | - | - | - |
| 1777185003 | 13.33° C | 75% | 1011.9 hPa | 0 mm | - | - | - |
| 1777182903 | 14.44° C | 68% | 1012.3 hPa | 0 mm | - | - | - |
| 1777181703 | 15.56° C | 66% | 1012.2 hPa | 0 mm | - | - | - |
| 1777180503 | 16.67° C | 59% | 1011.9 hPa | 0 mm | - | - | - |
| 1777180336 | 16.67° C | 59% | 1011.9 hPa | 0 mm | - | - | - |
| 1777178103 | 17.78° C | 58% | 1011.5 hPa | 0 mm | - | - | - |
* Rain latest hour (hover to see other rain measurements)
** Current wind speed in m/s (hover to see current wind gust speed)